Wind From: 11-12-2017 07:30 Until: 12-12-2017 06:00 warning for: Wind Level: Orange info button

Power and phone distribution networks may be disrupted for relatively long periods., Roofs and chimneys can be damaged. , Tree branches may break. , Vehicles can be deported. , Traffic may be disrupted, particularly on secondary roads in forest areas. Limit your trips. , Limit your speed in highway driving, especially if you drive a vehicle or hitch sensitive to wind. , Do not go for walks in forests or along the coast., In town, be vigilant against possible falling objects., Do not work on roofs and do not touch any electrical line fallen on the ground., Store or secure sensitive objects to wind or likely to be damaged., Always install power generators outside buildings. 


Meteo18 Weather Cam more information Meteo18 Weather Cam


Thunder radar more information blitzortung!


Rain radar more information rain snow radar


Visit our other weather sites:

Template documentation
and downloads

And another site



Weather Underground History page Text

Daily Summary for November 6, 2016 Units:  Metric    English   Both
« Previous Day
Next Day »
Daily Weekly Monthly Yearly Custom
  High: Low: Average:
Temperature: 7.1 °C 2.6 °C 4.7 °C
Dew Point: 4.7 °C 1.1 °C 3.3 °C
Humidity: 96 % 77 % 90 %
Wind Speed: 12.9 km/h 0.0 km/h 2.4 km/h
Wind Gust: 30.6 km/h - -
Wind:- - West
Pressure: 1008.0 hPa 1006.0 hPa -
Precipitation: 2.0 mm    
Historical Graphs
 
 
Tabular Data for November 6, 2016
Time Temperature Dew Point Pressure Wind Wind Speed Wind Gust Humidity Rainfall Rate (Hourly)
00:02 5.7 °C 4.5 °C 1007.3 hPa Calm   3.2 km/h 92 % 0.0 mm
00:07 5.7 °C 4.5 °C 1007.3 hPa Calm   3.2 km/h 92 % 0.0 mm
00:12 5.7 °C 4.5 °C 1007.3 hPa Calm   3.2 km/h 92 % 0.0 mm
00:17 5.6 °C 4.4 °C 1007.3 hPa Calm   1.6 km/h 92 % 0.0 mm
00:22 5.6 °C 4.4 °C 1007.3 hPa Calm     92 % 0.0 mm
00:27 5.6 °C 4.6 °C 1007.3 hPa Calm     93 % 0.0 mm
00:32 5.5 °C 4.5 °C 1007.3 hPa Calm     93 % 0.0 mm
00:42 5.6 °C 4.6 °C 1007.3 hPa Calm   1.6 km/h 93 % 0.0 mm
00:47 5.7 °C 4.7 °C 1007.3 hPa Calm   1.6 km/h 93 % 0.0 mm
00:57 5.7 °C 4.7 °C 1007.3 hPa Calm   3.2 km/h 93 % 0.0 mm
01:02 5.7 °C 4.7 °C 1007.3 hPa Calm   1.6 km/h 93 % 0.0 mm
01:12 5.7 °C 4.7 °C 1007.3 hPa Calm     93 % 0.0 mm
01:17 5.7 °C 4.7 °C 1007.3 hPa Calm   3.2 km/h 93 % 0.0 mm
01:22 5.7 °C 4.7 °C 1007.3 hPa WNW 1.6 km/h 3.2 km/h 93 % 0.0 mm
01:27 5.7 °C 4.7 °C 1007.0 hPa NW 1.6 km/h 3.2 km/h 93 % 0.0 mm
01:32 5.7 °C 4.7 °C 1007.0 hPa NW 3.2 km/h 4.8 km/h 93 % 0.0 mm
01:37 5.7 °C 4.7 °C 1007.3 hPa WNW 4.8 km/h 6.4 km/h 93 % 0.0 mm
01:42 5.7 °C 4.7 °C 1007.0 hPa NW 1.6 km/h 6.4 km/h 93 % 0.0 mm
01:47 5.7 °C 4.7 °C 1007.0 hPa WNW 3.2 km/h 6.4 km/h 93 % 0.0 mm
01:52 5.7 °C 4.7 °C 1007.0 hPa WNW 3.2 km/h 6.4 km/h 93 % 0.0 mm
01:57 5.7 °C 4.7 °C 1007.0 hPa WNW 1.6 km/h 6.4 km/h 93 % 0.0 mm
02:02 5.7 °C 4.7 °C 1007.0 hPa Calm   6.4 km/h 93 % 0.0 mm
02:07 5.6 °C 4.6 °C 1007.0 hPa WNW 3.2 km/h 6.4 km/h 93 % 0.0 mm
02:12 5.4 °C 4.5 °C 1007.0 hPa NW 4.8 km/h 6.4 km/h 94 % 0.0 mm
02:17 5.4 °C 4.5 °C 1007.0 hPa WNW 3.2 km/h 8.0 km/h 94 % 0.0 mm
02:22 5.4 °C 4.5 °C 1007.0 hPa NW 3.2 km/h 8.0 km/h 94 % 0.0 mm
02:32 5.4 °C 4.5 °C 1007.0 hPa NNE 3.2 km/h 6.4 km/h 94 % 0.0 mm
02:42 5.4 °C 4.5 °C 1007.0 hPa NW 1.6 km/h 11.3 km/h 94 % 0.0 mm
02:47 5.3 °C 4.4 °C 1007.0 hPa NW 8.0 km/h 11.3 km/h 94 % 0.0 mm
02:52 5.3 °C 4.4 °C 1007.0 hPa NW 1.6 km/h 8.0 km/h 94 % 0.0 mm
02:57 5.3 °C 4.4 °C 1006.7 hPa North 1.6 km/h 8.0 km/h 94 % 0.0 mm
03:02 5.2 °C 4.3 °C 1006.7 hPa Calm   8.0 km/h 94 % 0.0 mm
03:12 5.2 °C 4.3 °C 1006.7 hPa NNW 1.6 km/h 4.8 km/h 94 % 0.0 mm
03:17 5.2 °C 4.5 °C 1006.7 hPa Calm   4.8 km/h 95 % 0.0 mm
03:22 5.2 °C 4.5 °C 1006.7 hPa WNW 4.8 km/h 6.4 km/h 95 % 0.0 mm
03:27 5.1 °C 4.4 °C 1006.7 hPa NNW 4.8 km/h 6.4 km/h 95 % 0.0 mm
03:32 5.1 °C 4.4 °C 1006.7 hPa NNW 3.2 km/h 8.0 km/h 95 % 0.0 mm
03:37 5.1 °C 4.4 °C 1006.7 hPa North 1.6 km/h 8.0 km/h 95 % 0.0 mm
03:42 5.0 °C 4.3 °C 1006.7 hPa Calm   8.0 km/h 95 % 0.0 mm
03:47 4.9 °C 4.2 °C 1006.3 hPa Calm   4.8 km/h 95 % 0.0 mm
03:52 4.8 °C 4.1 °C 1006.3 hPa NNW 1.6 km/h 4.8 km/h 95 % 0.0 mm
03:57 4.8 °C 4.1 °C 1006.7 hPa Calm   3.2 km/h 95 % 0.0 mm
04:02 4.8 °C 4.1 °C 1006.3 hPa Calm   1.6 km/h 95 % 0.0 mm
04:07 4.8 °C 4.1 °C 1006.3 hPa Calm   1.6 km/h 95 % 0.0 mm
04:12 4.7 °C 4.0 °C 1006.3 hPa Calm   1.6 km/h 95 % 0.0 mm
04:17 4.7 °C 4.0 °C 1006.3 hPa Calm   3.2 km/h 95 % 0.0 mm
04:22 4.8 °C 4.1 °C 1006.3 hPa Calm   4.8 km/h 95 % 0.0 mm
04:27 4.8 °C 4.1 °C 1006.3 hPa North 1.6 km/h 4.8 km/h 95 % 0.0 mm
04:32 4.7 °C 4.0 °C 1006.0 hPa Calm   4.8 km/h 95 % 0.0 mm
04:42 4.6 °C 3.9 °C 1006.0 hPa Calm   8.0 km/h 95 % 0.0 mm
04:47 4.6 °C 3.9 °C 1006.0 hPa Calm   8.0 km/h 95 % 0.0 mm
04:52 4.6 °C 3.9 °C 1006.3 hPa WSW 6.4 km/h 8.0 km/h 95 % 0.0 mm
04:57 4.6 °C 4.0 °C 1006.3 hPa SW 1.6 km/h 8.0 km/h 96 % 0.0 mm
05:02 4.6 °C 4.0 °C 1006.3 hPa SW 4.8 km/h 8.0 km/h 96 % 0.0 mm
05:07 4.6 °C 4.0 °C 1006.3 hPa WSW 4.8 km/h 8.0 km/h 96 % 0.0 mm
05:17 4.7 °C 4.0 °C 1006.7 hPa WSW 1.6 km/h 9.7 km/h 95 % 0.0 mm
05:22 4.6 °C 3.9 °C 1006.3 hPa Calm   9.7 km/h 95 % 0.0 mm
05:27 4.7 °C 4.0 °C 1006.7 hPa WNW 1.6 km/h 6.4 km/h 95 % 0.0 mm
05:32 4.7 °C 4.0 °C 1006.7 hPa WNW 6.4 km/h 6.4 km/h 95 % 0.0 mm
05:37 4.6 °C 3.9 °C 1006.7 hPa Calm   9.7 km/h 95 % 0.0 mm
05:42 4.6 °C 3.9 °C 1006.7 hPa Calm   9.7 km/h 95 % 0.0 mm
05:47 4.6 °C 3.9 °C 1006.7 hPa WNW 1.6 km/h 9.7 km/h 95 % 0.0 mm
05:52 4.6 °C 4.0 °C 1006.7 hPa WNW 3.2 km/h 6.4 km/h 96 % 0.0 mm
05:57 4.6 °C 3.9 °C 1006.7 hPa NW 3.2 km/h 6.4 km/h 95 % 0.0 mm
06:02 4.6 °C 4.0 °C 1006.3 hPa WNW 1.6 km/h 9.7 km/h 96 % 0.0 mm
06:07 4.6 °C 4.0 °C 1006.7 hPa WNW 4.8 km/h 9.7 km/h 96 % 0.0 mm
06:12 4.6 °C 4.0 °C 1006.7 hPa Calm   9.7 km/h 96 % 0.0 mm
06:17 4.6 °C 3.9 °C 1006.3 hPa West 1.6 km/h 9.7 km/h 95 % 0.0 mm
06:22 4.5 °C 3.9 °C 1006.7 hPa West 1.6 km/h 6.4 km/h 96 % 0.0 mm
06:27 4.4 °C 3.8 °C 1006.3 hPa Calm   6.4 km/h 96 % 0.0 mm
06:32 4.4 °C 3.8 °C 1006.3 hPa Calm   4.8 km/h 96 % 0.0 mm
06:37 4.4 °C 3.8 °C 1006.3 hPa WNW 1.6 km/h 3.2 km/h 96 % 0.0 mm
06:42 4.5 °C 3.9 °C 1006.3 hPa Calm   3.2 km/h 96 % 0.0 mm
06:47 4.5 °C 3.9 °C 1006.3 hPa Calm   3.2 km/h 96 % 0.0 mm
06:52 4.5 °C 3.9 °C 1006.3 hPa Calm   3.2 km/h 96 % 0.0 mm
06:57 4.6 °C 4.0 °C 1006.3 hPa Calm   3.2 km/h 96 % 0.0 mm
07:07 4.6 °C 4.0 °C 1006.3 hPa Calm   1.6 km/h 96 % 0.0 mm
07:12 4.6 °C 4.0 °C 1006.3 hPa Calm   1.6 km/h 96 % 0.0 mm
07:17 4.6 °C 4.0 °C 1006.3 hPa Calm   1.6 km/h 96 % 0.0 mm
07:22 4.6 °C 3.9 °C 1006.3 hPa Calm   1.6 km/h 95 % 0.0 mm
07:27 4.5 °C 3.8 °C 1006.3 hPa Calm   1.6 km/h 95 % 0.0 mm
07:32 4.5 °C 3.8 °C 1006.3 hPa Calm     95 % 0.0 mm
07:37 4.5 °C 3.8 °C 1006.3 hPa Calm     95 % 0.0 mm
07:42 4.4 °C 3.7 °C 1006.3 hPa Calm     95 % 0.0 mm
07:47 4.4 °C 3.7 °C 1006.7 hPa Calm     95 % 0.0 mm
07:52 4.4 °C 3.8 °C 1006.3 hPa Calm     96 % 0.0 mm
07:57 4.4 °C 3.8 °C 1006.7 hPa Calm   1.6 km/h 96 % 0.0 mm
08:02 4.4 °C 3.8 °C 1006.7 hPa Calm   1.6 km/h 96 % 0.0 mm
08:07 4.5 °C 3.9 °C 1006.7 hPa Calm   1.6 km/h 96 % 0.0 mm
08:12 4.5 °C 3.9 °C 1006.7 hPa Calm     96 % 0.0 mm
08:17 4.5 °C 3.9 °C 1006.7 hPa Calm   1.6 km/h 96 % 0.0 mm
08:22 4.6 °C 4.0 °C 1006.7 hPa Calm   1.6 km/h 96 % 0.0 mm
08:27 4.6 °C 4.0 °C 1006.7 hPa West 1.6 km/h 1.6 km/h 96 % 0.0 mm
08:32 4.6 °C 4.0 °C 1006.7 hPa Calm   3.2 km/h 96 % 0.0 mm
08:37 4.6 °C 4.0 °C 1006.7 hPa Calm   3.2 km/h 96 % 0.0 mm
08:42 4.6 °C 4.0 °C 1006.7 hPa West 1.6 km/h 3.2 km/h 96 % 0.0 mm
08:47 4.6 °C 4.0 °C 1007.0 hPa Calm   1.6 km/h 96 % 0.0 mm
08:52 4.7 °C 4.1 °C 1007.0 hPa Calm   1.6 km/h 96 % 0.0 mm
08:57 4.7 °C 4.1 °C 1007.0 hPa Calm   3.2 km/h 96 % 0.0 mm
09:02 4.7 °C 4.1 °C 1007.0 hPa NW 11.3 km/h 11.3 km/h 96 % 0.0 mm
09:07 4.2 °C 3.2 °C 1007.3 hPa NW 4.8 km/h 16.1 km/h 93 % 0.0 mm
09:12 3.8 °C 2.6 °C 1007.3 hPa NNW 8.0 km/h 20.9 km/h 92 % 0.0 mm
09:17 3.6 °C 2.4 °C 1007.3 hPa NNW 9.7 km/h 20.9 km/h 92 % 0.0 mm
09:22 3.4 °C 2.4 °C 1007.3 hPa North 8.0 km/h 20.9 km/h 93 % 0.0 mm
09:32 3.3 °C 2.4 °C 1007.3 hPa North 4.8 km/h 14.5 km/h 94 % 0.0 mm
09:37 3.4 °C 2.5 °C 1007.3 hPa NNW 1.6 km/h 14.5 km/h 94 % 0.0 mm
09:47 3.6 °C 2.6 °C 1007.3 hPa North 6.4 km/h 11.3 km/h 93 % 0.0 mm
09:57 3.7 °C 2.5 °C 1007.0 hPa NW 1.6 km/h 11.3 km/h 92 % 0.0 mm
10:02 3.8 °C 2.6 °C 1007.0 hPa North 3.2 km/h 12.9 km/h 92 % 0.0 mm
10:07 4.1 °C 2.9 °C 1007.0 hPa NNW 3.2 km/h 12.9 km/h 92 % 0.0 mm
10:12 4.3 °C 3.1 °C 1007.0 hPa North 4.8 km/h 9.7 km/h 92 % 0.0 mm
10:17 4.5 °C 3.3 °C 1007.0 hPa NNW 3.2 km/h 11.3 km/h 92 % 0.0 mm
10:22 4.7 °C 3.4 °C 1007.0 hPa Calm   11.3 km/h 91 % 0.0 mm
10:32 4.9 °C 3.4 °C 1007.0 hPa NNE 3.2 km/h 11.3 km/h 90 % 0.0 mm
10:37 5.1 °C 3.4 °C 1007.0 hPa NNW 3.2 km/h 8.0 km/h 89 % 0.0 mm
10:42 5.2 °C 3.4 °C 1007.0 hPa NW 1.6 km/h 8.0 km/h 88 % 0.0 mm
10:47 5.3 °C 3.3 °C 1007.0 hPa NNW 1.6 km/h 8.0 km/h 87 % 0.0 mm
10:52 5.5 °C 3.5 °C 1007.0 hPa NNW 1.6 km/h 8.0 km/h 87 % 0.0 mm
10:57 5.6 °C 3.4 °C 1007.0 hPa Calm   4.8 km/h 86 % 0.0 mm
11:02 5.6 °C 3.3 °C 1007.3 hPa WNW 1.6 km/h 4.8 km/h 85 % 0.0 mm
11:07 5.6 °C 3.4 °C 1007.3 hPa Calm   4.8 km/h 86 % 0.0 mm
11:12 5.6 °C 3.4 °C 1007.3 hPa Calm   4.8 km/h 86 % 0.0 mm
11:17 5.6 °C 3.4 °C 1007.3 hPa Calm   4.8 km/h 86 % 0.0 mm
11:22 5.6 °C 3.6 °C 1007.3 hPa West 1.6 km/h 4.8 km/h 87 % 0.0 mm
11:27 5.5 °C 3.3 °C 1007.3 hPa West 1.6 km/h 6.4 km/h 86 % 0.0 mm
11:32 5.4 °C 3.4 °C 1007.3 hPa NW 1.6 km/h 6.4 km/h 87 % 0.0 mm
11:37 5.4 °C 3.2 °C 1007.3 hPa WNW 1.6 km/h 6.4 km/h 86 % 0.0 mm
11:42 5.4 °C 3.1 °C 1007.3 hPa NW 1.6 km/h 4.8 km/h 85 % 0.0 mm
11:47 5.4 °C 3.1 °C 1007.3 hPa Calm   6.4 km/h 85 % 0.0 mm
11:52 5.5 °C 3.2 °C 1007.3 hPa Calm   6.4 km/h 85 % 0.0 mm
11:57 5.6 °C 3.3 °C 1007.0 hPa WNW 1.6 km/h 4.8 km/h 85 % 0.0 mm
12:02 5.7 °C 3.5 °C 1007.0 hPa Calm   3.2 km/h 86 % 0.0 mm
12:07 5.7 °C 3.5 °C 1007.3 hPa Calm   3.2 km/h 86 % 0.0 mm
12:12 5.8 °C 3.6 °C 1007.0 hPa WSW 1.6 km/h 3.2 km/h 86 % 0.0 mm
12:22 5.9 °C 3.7 °C 1007.0 hPa WNW 1.6 km/h 3.2 km/h 86 % 0.0 mm
12:27 5.9 °C 3.7 °C 1007.0 hPa Calm   4.8 km/h 86 % 0.0 mm
12:32 6.0 °C 3.8 °C 1007.0 hPa Calm   4.8 km/h 86 % 0.0 mm
12:42 5.9 °C 3.7 °C 1007.0 hPa WNW 8.0 km/h 8.0 km/h 86 % 0.0 mm
12:47 5.9 °C 3.7 °C 1007.0 hPa West 4.8 km/h 9.7 km/h 86 % 0.0 mm
12:57 6.6 °C 4.4 °C 1006.7 hPa NW 1.6 km/h 9.7 km/h 86 % 0.0 mm
13:07 6.8 °C 4.3 °C 1006.7 hPa NW 8.0 km/h 11.3 km/h 84 % 0.0 mm
13:12 6.6 °C 4.1 °C 1006.7 hPa NW 4.8 km/h 12.9 km/h 84 % 0.0 mm
13:17 6.5 °C 4.0 °C 1006.7 hPa NNW 1.6 km/h 12.9 km/h 84 % 0.0 mm
13:22 6.5 °C 3.8 °C 1006.7 hPa West 8.0 km/h 12.9 km/h 83 % 0.0 mm
13:27 6.4 °C 3.7 °C 1006.7 hPa NW 1.6 km/h 11.3 km/h 83 % 0.0 mm
13:32 6.4 °C 3.7 °C 1006.7 hPa WNW 6.4 km/h 14.5 km/h 83 % 0.0 mm
13:37 6.4 °C 3.9 °C 1006.7 hPa NNW 3.2 km/h 14.5 km/h 84 % 0.0 mm
13:42 6.5 °C 4.0 °C 1006.7 hPa West 1.6 km/h 14.5 km/h 84 % 0.0 mm
13:47 6.6 °C 4.4 °C 1006.7 hPa WNW 1.6 km/h 9.7 km/h 86 % 0.0 mm
13:57 6.4 °C 4.1 °C 1006.7 hPa WNW 1.6 km/h 9.7 km/h 85 % 0.0 mm
14:02 6.6 °C 3.9 °C 1006.3 hPa West 3.2 km/h 9.7 km/h 83 % 0.0 mm
14:12 6.8 °C 3.8 °C 1006.3 hPa WNW 8.0 km/h 9.7 km/h 81 % 0.0 mm
14:17 6.7 °C 3.8 °C 1006.3 hPa WSW 8.0 km/h 12.9 km/h 82 % 0.0 mm
14:22 7.1 °C 4.4 °C 1006.3 hPa NNW 6.4 km/h 12.9 km/h 83 % 0.0 mm
14:32 6.8 °C 3.2 °C 1006.0 hPa WNW 1.6 km/h 20.9 km/h 78 % 0.0 mm
14:37 6.7 °C 3.3 °C 1006.0 hPa NE 3.2 km/h 20.9 km/h 79 % 0.0 mm
14:42 6.3 °C 2.7 °C 1006.0 hPa NW 3.2 km/h 14.5 km/h 78 % 0.0 mm
14:47 6.2 °C 2.6 °C 1006.3 hPa Calm   9.7 km/h 78 % 0.0 mm
14:57 6.3 °C 2.6 °C 1006.3 hPa WNW 6.4 km/h 8.0 km/h 77 % 0.0 mm
15:02 6.2 °C 2.6 °C 1006.3 hPa Calm   9.7 km/h 78 % 0.0 mm
15:12 6.1 °C 2.7 °C 1006.3 hPa Calm   9.7 km/h 79 % 0.0 mm
15:22 5.9 °C 2.9 °C 1006.3 hPa West 1.6 km/h 8.0 km/h 81 % 0.0 mm
15:32 6.2 °C 3.2 °C 1006.3 hPa WNW 4.8 km/h 4.8 km/h 81 % 0.0 mm
15:42 6.7 °C 3.1 °C 1006.3 hPa WNW 1.6 km/h 6.4 km/h 78 % 0.0 mm
15:47 6.7 °C 3.1 °C 1006.3 hPa WNW 6.4 km/h 6.4 km/h 78 % 0.0 mm
15:52 6.5 °C 3.1 °C 1006.3 hPa Calm   9.7 km/h 79 % 0.0 mm
15:57 6.4 °C 3.0 °C 1006.3 hPa West 3.2 km/h 9.7 km/h 79 % 0.0 mm
16:02 6.3 °C 3.1 °C 1006.3 hPa WSW 6.4 km/h 9.7 km/h 80 % 0.0 mm
16:07 6.3 °C 3.3 °C 1006.7 hPa West 3.2 km/h 8.0 km/h 81 % 0.0 mm
16:12 6.2 °C 3.4 °C 1006.7 hPa Calm   9.7 km/h 82 % 0.0 mm
16:22 5.6 °C 2.6 °C 1007.0 hPa WNW 12.9 km/h 12.9 km/h 81 % 0.5 mm
16:32 3.9 °C 1.6 °C 1007.0 hPa Calm   30.6 km/h 85 % 1.3 mm
16:42 3.6 °C 1.5 °C 1006.7 hPa SW 3.2 km/h 20.9 km/h 86 % 2.0 mm
16:47 3.5 °C 1.5 °C 1006.7 hPa West 3.2 km/h 14.5 km/h 87 % 2.0 mm
16:52 3.5 °C 1.4 °C 1006.7 hPa WSW 1.6 km/h 14.5 km/h 86 % 2.0 mm
16:57 3.7 °C 1.6 °C 1006.7 hPa West 3.2 km/h 9.7 km/h 86 % 2.0 mm
17:02 3.7 °C 1.7 °C 1006.7 hPa West 3.2 km/h 6.4 km/h 87 % 2.0 mm
17:07 3.7 °C 1.9 °C 1006.7 hPa West 1.6 km/h 6.4 km/h 88 % 2.0 mm
17:12 3.6 °C 2.0 °C 1006.7 hPa West 3.2 km/h 6.4 km/h 89 % 2.0 mm
17:17 3.5 °C 2.0 °C 1007.0 hPa WNW 1.6 km/h 4.8 km/h 90 % 1.8 mm
17:27 3.6 °C 2.1 °C 1007.0 hPa West 1.6 km/h 3.2 km/h 90 % 1.3 mm
17:32 3.6 °C 2.1 °C 1007.0 hPa Calm   3.2 km/h 90 % 0.5 mm
17:37 3.6 °C 2.3 °C 1007.0 hPa WSW 1.6 km/h 3.2 km/h 91 % 0.3 mm
17:42 3.6 °C 2.1 °C 1007.0 hPa WSW 1.6 km/h 3.2 km/h 90 % 0.0 mm
17:47 3.7 °C 2.2 °C 1007.0 hPa SW 1.6 km/h 4.8 km/h 90 % 0.0 mm
17:52 3.8 °C 2.3 °C 1007.0 hPa SW 3.2 km/h 4.8 km/h 90 % 0.0 mm
17:57 3.8 °C 2.3 °C 1007.0 hPa SW 1.6 km/h 4.8 km/h 90 % 0.0 mm
18:02 3.8 °C 2.3 °C 1007.0 hPa SW 3.2 km/h 4.8 km/h 90 % 0.0 mm
18:12 3.8 °C 2.6 °C 1007.0 hPa West 1.6 km/h 4.8 km/h 92 % 0.0 mm
18:17 3.7 °C 2.5 °C 1007.0 hPa Calm   4.8 km/h 92 % 0.0 mm
18:22 3.7 °C 2.5 °C 1007.0 hPa Calm   4.8 km/h 92 % 0.0 mm
18:27 3.7 °C 2.7 °C 1007.3 hPa SW 4.8 km/h 4.8 km/h 93 % 0.0 mm
18:32 3.7 °C 2.7 °C 1007.3 hPa Calm   3.2 km/h 93 % 0.0 mm
18:42 3.7 °C 2.8 °C 1007.3 hPa WNW 3.2 km/h 6.4 km/h 94 % 0.0 mm
18:52 3.7 °C 2.8 °C 1007.3 hPa West 1.6 km/h 4.8 km/h 94 % 0.0 mm
19:02 3.8 °C 2.9 °C 1007.3 hPa West 1.6 km/h 6.4 km/h 94 % 0.0 mm
19:07 3.8 °C 2.9 °C 1007.3 hPa WNW 4.8 km/h 9.7 km/h 94 % 0.0 mm
19:12 3.9 °C 2.9 °C 1007.3 hPa West 1.6 km/h 9.7 km/h 93 % 0.0 mm
19:17 3.8 °C 2.8 °C 1007.3 hPa Calm   9.7 km/h 93 % 0.0 mm
19:22 3.8 °C 2.6 °C 1007.3 hPa WSW 9.7 km/h 14.5 km/h 92 % 0.0 mm
19:27 3.9 °C 2.6 °C 1007.3 hPa West 8.0 km/h 14.5 km/h 91 % 0.0 mm
19:37 3.8 °C 2.2 °C 1007.3 hPa West 3.2 km/h 14.5 km/h 89 % 0.0 mm
19:42 3.8 °C 2.2 °C 1007.3 hPa WNW 6.4 km/h 11.3 km/h 89 % 0.0 mm
19:47 3.8 °C 2.2 °C 1007.3 hPa WNW 4.8 km/h 11.3 km/h 89 % 0.0 mm
19:52 3.7 °C 1.9 °C 1007.3 hPa West 8.0 km/h 12.9 km/h 88 % 0.0 mm
19:57 3.7 °C 2.1 °C 1007.3 hPa West 6.4 km/h 17.7 km/h 89 % 0.0 mm
20:02 3.7 °C 2.1 °C 1007.3 hPa WSW 6.4 km/h 17.7 km/h 89 % 0.0 mm
20:12 3.8 °C 1.8 °C 1007.3 hPa West 6.4 km/h 12.9 km/h 87 % 0.0 mm
20:17 3.8 °C 1.8 °C 1007.7 hPa West 11.3 km/h 12.9 km/h 87 % 0.0 mm
20:22 3.7 °C 1.9 °C 1007.7 hPa WSW 3.2 km/h 16.1 km/h 88 % 0.0 mm
20:27 3.6 °C 1.8 °C 1007.7 hPa WSW 8.0 km/h 16.1 km/h 88 % 0.0 mm
20:32 3.5 °C 1.7 °C 1007.7 hPa WSW 3.2 km/h 11.3 km/h 88 % 0.0 mm
20:37 3.5 °C 1.7 °C 1007.7 hPa West 3.2 km/h 9.7 km/h 88 % 0.0 mm
20:42 3.5 °C 1.7 °C 1007.7 hPa WNW 1.6 km/h 9.7 km/h 88 % 0.0 mm
20:52 3.4 °C 1.8 °C 1008.0 hPa Calm   6.4 km/h 89 % 0.0 mm
20:57 3.3 °C 1.7 °C 1007.7 hPa WNW 1.6 km/h 3.2 km/h 89 % 0.0 mm
21:02 3.3 °C 1.7 °C 1008.0 hPa Calm   3.2 km/h 89 % 0.0 mm
21:17 3.4 °C 1.6 °C 1008.0 hPa Calm   3.2 km/h 88 % 0.0 mm
21:22 3.3 °C 1.5 °C 1008.0 hPa WSW 6.4 km/h 6.4 km/h 88 % 0.0 mm
21:27 3.3 °C 1.7 °C 1008.0 hPa West 1.6 km/h 6.4 km/h 89 % 0.0 mm
21:32 3.3 °C 1.5 °C 1008.0 hPa WSW 4.8 km/h 6.4 km/h 88 % 0.0 mm
21:37 3.3 °C 1.5 °C 1008.0 hPa West 3.2 km/h 9.7 km/h 88 % 0.0 mm
21:42 3.3 °C 1.5 °C 1008.0 hPa SW 4.8 km/h 9.7 km/h 88 % 0.0 mm
21:47 3.3 °C 1.5 °C 1008.0 hPa Calm   9.7 km/h 88 % 0.0 mm
21:52 3.3 °C 1.7 °C 1008.0 hPa NW 1.6 km/h 8.0 km/h 89 % 0.0 mm
21:57 3.3 °C 1.5 °C 1008.0 hPa Calm   8.0 km/h 88 % 0.0 mm
22:02 3.3 °C 1.5 °C 1008.0 hPa West 4.8 km/h 4.8 km/h 88 % 0.0 mm
22:07 3.3 °C 1.7 °C 1008.0 hPa WNW 6.4 km/h 6.4 km/h 89 % 0.0 mm
22:17 3.2 °C 1.6 °C 1008.0 hPa West 3.2 km/h 6.4 km/h 89 % 0.0 mm
22:22 3.2 °C 1.6 °C 1008.0 hPa West 3.2 km/h 6.4 km/h 89 % 0.0 mm
22:27 3.2 °C 1.6 °C 1008.0 hPa West 4.8 km/h 8.0 km/h 89 % 0.0 mm
22:32 3.1 °C 1.5 °C 1008.0 hPa West 1.6 km/h 8.0 km/h 89 % 0.0 mm
22:37 3.1 °C 1.5 °C 1008.0 hPa WNW 1.6 km/h 8.0 km/h 89 % 0.0 mm
22:42 2.9 °C 1.3 °C 1008.0 hPa WNW 3.2 km/h 8.0 km/h 89 % 0.0 mm
22:47 2.8 °C 1.2 °C 1008.0 hPa WSW 3.2 km/h 8.0 km/h 89 % 0.0 mm
22:52 2.8 °C 1.3 °C 1008.0 hPa WSW 9.7 km/h 9.7 km/h 90 % 0.0 mm
22:57 2.8 °C 1.2 °C 1008.0 hPa West 4.8 km/h 12.9 km/h 89 % 0.0 mm
23:02 2.8 °C 1.2 °C 1008.0 hPa SW 6.4 km/h 12.9 km/h 89 % 0.0 mm
23:07 2.7 °C 1.2 °C 1008.0 hPa West 3.2 km/h 12.9 km/h 90 % 0.0 mm
23:17 2.6 °C 1.1 °C 1008.0 hPa West 1.6 km/h 9.7 km/h 90 % 0.0 mm
23:27 2.6 °C 1.3 °C 1008.0 hPa WSW 6.4 km/h 12.9 km/h 91 % 0.0 mm
23:32 2.6 °C 1.3 °C 1008.0 hPa SW 3.2 km/h 12.9 km/h 91 % 0.0 mm
Meteo18
Compliments of Weather Underground - 4 mb

Script developed by  Jim McMurry - jmcmurry@mwt.net Adapted for the template by  Wim van der Kuil - Leuven-Template.eu

You find our weather info also at:

European Weather Network

Weather Underground

Equipment we use:

Weather-station
Davis Vue

Weather-program
Meteohub

Weather-server
Raspberry PI 2 B+

Provider
1 and 1

Davis Vue

Meteohub

Raspberry PI 2 B+

1 and 1